sensor_id;sensor_type;location;lat;lon;timestamp;P1;durP1;ratioP1;P2;durP2;ratioP2
7821;SDS011;3956;50.558;9.678;2023-02-21T00:02:22;13.73;;;9.30;;
7821;SDS011;3956;50.558;9.678;2023-02-21T00:05:09;13.40;;;9.23;;
7821;SDS011;3956;50.558;9.678;2023-02-21T00:07:54;17.37;;;11.83;;
7821;SDS011;3956;50.558;9.678;2023-02-21T00:10:40;15.20;;;9.50;;
7821;SDS011;3956;50.558;9.678;2023-02-21T00:13:26;15.57;;;9.50;;
7821;SDS011;3956;50.558;9.678;2023-02-21T00:16:14;14.57;;;9.83;;
7821;SDS011;3956;50.558;9.678;2023-02-21T00:19:01;15.90;;;9.93;;
7821;SDS011;3956;50.558;9.678;2023-02-21T00:21:47;17.13;;;10.13;;
7821;SDS011;3956;50.558;9.678;2023-02-21T00:24:32;16.80;;;9.93;;
7821;SDS011;3956;50.558;9.678;2023-02-21T00:27:18;16.97;;;9.83;;
7821;SDS011;3956;50.558;9.678;2023-02-21T00:30:05;15.97;;;10.87;;
7821;SDS011;3956;50.558;9.678;2023-02-21T00:32:57;18.37;;;11.30;;
7821;SDS011;3956;50.558;9.678;2023-02-21T00:35:43;17.73;;;10.77;;
7821;SDS011;3956;50.558;9.678;2023-02-21T00:38:29;16.90;;;10.23;;
7821;SDS011;3956;50.558;9.678;2023-02-21T00:41:20;15.60;;;10.53;;
7821;SDS011;3956;50.558;9.678;2023-02-21T00:44:06;15.93;;;10.40;;
7821;SDS011;3956;50.558;9.678;2023-02-21T00:46:52;16.47;;;11.47;;
7821;SDS011;3956;50.558;9.678;2023-02-21T00:49:40;19.73;;;11.87;;
7821;SDS011;3956;50.558;9.678;2023-02-21T00:52:26;19.17;;;11.80;;
7821;SDS011;3956;50.558;9.678;2023-02-21T00:55:20;17.60;;;11.80;;
7821;SDS011;3956;50.558;9.678;2023-02-21T00:58:10;20.10;;;12.50;;
7821;SDS011;3956;50.558;9.678;2023-02-21T01:00:56;20.93;;;12.60;;
7821;SDS011;3956;50.558;9.678;2023-02-21T01:03:42;21.67;;;13.77;;
7821;SDS011;3956;50.558;9.678;2023-02-21T01:06:29;21.23;;;13.17;;
7821;SDS011;3956;50.558;9.678;2023-02-21T01:09:16;18.73;;;12.40;;
7821;SDS011;3956;50.558;9.678;2023-02-21T01:12:04;20.27;;;13.67;;
7821;SDS011;3956;50.558;9.678;2023-02-21T01:14:50;22.83;;;13.63;;
7821;SDS011;3956;50.558;9.678;2023-02-21T01:17:35;23.03;;;14.07;;
7821;SDS011;3956;50.558;9.678;2023-02-21T01:20:21;21.57;;;13.63;;
7821;SDS011;3956;50.558;9.678;2023-02-21T01:23:09;21.23;;;13.30;;
7821;SDS011;3956;50.558;9.678;2023-02-21T01:25:54;21.70;;;13.10;;
7821;SDS011;3956;50.558;9.678;2023-02-21T01:28:40;19.87;;;12.90;;
7821;SDS011;3956;50.558;9.678;2023-02-21T01:31:26;21.93;;;14.63;;
7821;SDS011;3956;50.558;9.678;2023-02-21T01:34:11;25.73;;;14.20;;
7821;SDS011;3956;50.558;9.678;2023-02-21T01:36:59;22.37;;;14.63;;
7821;SDS011;3956;50.558;9.678;2023-02-21T01:39:45;24.57;;;15.40;;
7821;SDS011;3956;50.558;9.678;2023-02-21T01:42:31;23.87;;;14.50;;
7821;SDS011;3956;50.558;9.678;2023-02-21T01:48:29;23.93;;;14.83;;
7821;SDS011;3956;50.558;9.678;2023-02-21T01:51:19;21.40;;;14.00;;
7821;SDS011;3956;50.558;9.678;2023-02-21T01:54:08;26.13;;;14.87;;
7821;SDS011;3956;50.558;9.678;2023-02-21T01:56:57;22.57;;;14.50;;
7821;SDS011;3956;50.558;9.678;2023-02-21T01:59:44;24.47;;;15.23;;
7821;SDS011;3956;50.558;9.678;2023-02-21T02:02:32;23.70;;;14.97;;
7821;SDS011;3956;50.558;9.678;2023-02-21T02:05:21;24.10;;;15.03;;
7821;SDS011;3956;50.558;9.678;2023-02-21T02:08:09;25.53;;;15.37;;
7821;SDS011;3956;50.558;9.678;2023-02-21T02:10:56;22.50;;;14.50;;
7821;SDS011;3956;50.558;9.678;2023-02-21T02:13:53;23.37;;;14.83;;
7821;SDS011;3956;50.558;9.678;2023-02-21T02:16:32;22.83;;;14.90;;
7821;SDS011;3956;50.558;9.678;2023-02-21T02:19:12;24.27;;;14.90;;
7821;SDS011;3956;50.558;9.678;2023-02-21T02:25:08;24.87;;;15.23;;
7821;SDS011;3956;50.558;9.678;2023-02-21T02:27:50;24.03;;;15.00;;
7821;SDS011;3956;50.558;9.678;2023-02-21T02:30:34;22.60;;;14.93;;
7821;SDS011;3956;50.558;9.678;2023-02-21T02:33:21;22.50;;;14.70;;
7821;SDS011;3956;50.558;9.678;2023-02-21T02:36:17;25.90;;;15.33;;
7821;SDS011;3956;50.558;9.678;2023-02-21T02:38:51;27.47;;;15.80;;
7821;SDS011;3956;50.558;9.678;2023-02-21T02:41:25;23.43;;;15.53;;
7821;SDS011;3956;50.558;9.678;2023-02-21T02:44:01;24.23;;;15.73;;
7821;SDS011;3956;50.558;9.678;2023-02-21T02:46:33;24.47;;;16.23;;
7821;SDS011;3956;50.558;9.678;2023-02-21T02:49:07;26.43;;;15.53;;
7821;SDS011;3956;50.558;9.678;2023-02-21T02:51:40;25.60;;;15.47;;
7821;SDS011;3956;50.558;9.678;2023-02-21T02:54:09;25.93;;;15.70;;
7821;SDS011;3956;50.558;9.678;2023-02-21T02:56:37;24.30;;;16.10;;
7821;SDS011;3956;50.558;9.678;2023-02-21T02:59:05;26.83;;;16.73;;
7821;SDS011;3956;50.558;9.678;2023-02-21T03:01:43;26.20;;;16.60;;
7821;SDS011;3956;50.558;9.678;2023-02-21T03:04:48;25.87;;;16.77;;
7821;SDS011;3956;50.558;9.678;2023-02-21T03:07:33;26.43;;;15.87;;
7821;SDS011;3956;50.558;9.678;2023-02-21T03:10:11;27.37;;;15.77;;
7821;SDS011;3956;50.558;9.678;2023-02-21T03:12:50;24.40;;;15.50;;
7821;SDS011;3956;50.558;9.678;2023-02-21T03:15:27;29.33;;;17.03;;
7821;SDS011;3956;50.558;9.678;2023-02-21T03:18:02;25.10;;;16.33;;
7821;SDS011;3956;50.558;9.678;2023-02-21T03:20:33;27.90;;;17.33;;
7821;SDS011;3956;50.558;9.678;2023-02-21T03:23:04;27.03;;;16.33;;
7821;SDS011;3956;50.558;9.678;2023-02-21T03:25:35;26.83;;;16.20;;
7821;SDS011;3956;50.558;9.678;2023-02-21T03:28:05;28.13;;;16.10;;
7821;SDS011;3956;50.558;9.678;2023-02-21T03:30:35;28.33;;;17.27;;
7821;SDS011;3956;50.558;9.678;2023-02-21T03:33:03;27.23;;;17.47;;
7821;SDS011;3956;50.558;9.678;2023-02-21T03:35:31;29.93;;;16.83;;
7821;SDS011;3956;50.558;9.678;2023-02-21T03:37:59;26.97;;;16.70;;
7821;SDS011;3956;50.558;9.678;2023-02-21T03:40:30;30.30;;;17.17;;
7821;SDS011;3956;50.558;9.678;2023-02-21T03:43:00;29.00;;;16.70;;
7821;SDS011;3956;50.558;9.678;2023-02-21T03:45:30;27.23;;;17.63;;
7821;SDS011;3956;50.558;9.678;2023-02-21T03:47:58;30.00;;;17.60;;
7821;SDS011;3956;50.558;9.678;2023-02-21T03:50:26;26.47;;;16.40;;
7821;SDS011;3956;50.558;9.678;2023-02-21T03:52:55;26.53;;;17.23;;
7821;SDS011;3956;50.558;9.678;2023-02-21T03:55:23;27.13;;;17.40;;
7821;SDS011;3956;50.558;9.678;2023-02-21T03:57:52;27.73;;;17.33;;
7821;SDS011;3956;50.558;9.678;2023-02-21T04:00:21;29.67;;;17.67;;
7821;SDS011;3956;50.558;9.678;2023-02-21T04:02:50;32.20;;;18.03;;
7821;SDS011;3956;50.558;9.678;2023-02-21T04:05:18;28.27;;;17.27;;
7821;SDS011;3956;50.558;9.678;2023-02-21T04:07:48;29.13;;;17.70;;
7821;SDS011;3956;50.558;9.678;2023-02-21T04:10:17;29.43;;;17.10;;
7821;SDS011;3956;50.558;9.678;2023-02-21T04:12:46;30.03;;;17.80;;
7821;SDS011;3956;50.558;9.678;2023-02-21T04:15:16;36.83;;;18.40;;
7821;SDS011;3956;50.558;9.678;2023-02-21T04:17:44;28.00;;;16.87;;
7821;SDS011;3956;50.558;9.678;2023-02-21T04:20:13;29.63;;;17.10;;
7821;SDS011;3956;50.558;9.678;2023-02-21T04:22:42;28.67;;;17.13;;
7821;SDS011;3956;50.558;9.678;2023-02-21T04:25:27;29.37;;;18.00;;
7821;SDS011;3956;50.558;9.678;2023-02-21T04:27:57;31.27;;;17.00;;
7821;SDS011;3956;50.558;9.678;2023-02-21T04:30:26;27.13;;;16.93;;
7821;SDS011;3956;50.558;9.678;2023-02-21T04:32:55;28.10;;;17.67;;
7821;SDS011;3956;50.558;9.678;2023-02-21T04:35:23;32.67;;;17.90;;
7821;SDS011;3956;50.558;9.678;2023-02-21T04:37:51;31.57;;;16.67;;
7821;SDS011;3956;50.558;9.678;2023-02-21T04:40:19;26.50;;;16.67;;
7821;SDS011;3956;50.558;9.678;2023-02-21T04:42:49;29.20;;;17.13;;
7821;SDS011;3956;50.558;9.678;2023-02-21T04:45:21;29.47;;;16.37;;
7821;SDS011;3956;50.558;9.678;2023-02-21T04:47:54;29.10;;;16.77;;
7821;SDS011;3956;50.558;9.678;2023-02-21T04:50:24;29.07;;;17.13;;
7821;SDS011;3956;50.558;9.678;2023-02-21T04:52:58;31.77;;;17.83;;
7821;SDS011;3956;50.558;9.678;2023-02-21T04:55:26;29.27;;;16.17;;
7821;SDS011;3956;50.558;9.678;2023-02-21T04:57:55;28.30;;;16.77;;
7821;SDS011;3956;50.558;9.678;2023-02-21T05:00:23;27.10;;;16.97;;
7821;SDS011;3956;50.558;9.678;2023-02-21T05:02:51;31.20;;;17.00;;
7821;SDS011;3956;50.558;9.678;2023-02-21T05:05:20;29.30;;;16.20;;
7821;SDS011;3956;50.558;9.678;2023-02-21T05:07:52;31.43;;;17.77;;
7821;SDS011;3956;50.558;9.678;2023-02-21T05:10:21;36.13;;;17.13;;
7821;SDS011;3956;50.558;9.678;2023-02-21T05:13:09;26.63;;;15.83;;
7821;SDS011;3956;50.558;9.678;2023-02-21T05:15:41;28.00;;;16.63;;
7821;SDS011;3956;50.558;9.678;2023-02-21T05:18:09;28.67;;;16.73;;
7821;SDS011;3956;50.558;9.678;2023-02-21T05:20:39;29.13;;;15.80;;
7821;SDS011;3956;50.558;9.678;2023-02-21T05:23:07;29.10;;;16.93;;
7821;SDS011;3956;50.558;9.678;2023-02-21T05:25:40;28.73;;;16.30;;
7821;SDS011;3956;50.558;9.678;2023-02-21T05:28:15;28.57;;;16.07;;
7821;SDS011;3956;50.558;9.678;2023-02-21T05:30:49;31.70;;;17.53;;
7821;SDS011;3956;50.558;9.678;2023-02-21T05:33:17;26.57;;;16.53;;
7821;SDS011;3956;50.558;9.678;2023-02-21T05:35:48;31.73;;;18.53;;
7821;SDS011;3956;50.558;9.678;2023-02-21T05:38:17;34.37;;;15.93;;
7821;SDS011;3956;50.558;9.678;2023-02-21T05:40:46;37.80;;;17.97;;
7821;SDS011;3956;50.558;9.678;2023-02-21T05:43:15;28.63;;;16.57;;
7821;SDS011;3956;50.558;9.678;2023-02-21T05:45:43;31.33;;;17.33;;
7821;SDS011;3956;50.558;9.678;2023-02-21T05:48:11;30.97;;;16.97;;
7821;SDS011;3956;50.558;9.678;2023-02-21T05:50:40;30.43;;;16.43;;
7821;SDS011;3956;50.558;9.678;2023-02-21T05:53:15;33.63;;;16.97;;
7821;SDS011;3956;50.558;9.678;2023-02-21T05:55:44;28.80;;;15.63;;
7821;SDS011;3956;50.558;9.678;2023-02-21T05:58:13;31.27;;;15.10;;
7821;SDS011;3956;50.558;9.678;2023-02-21T06:00:46;29.53;;;16.77;;
7821;SDS011;3956;50.558;9.678;2023-02-21T06:03:23;27.27;;;15.93;;
7821;SDS011;3956;50.558;9.678;2023-02-21T06:06:18;29.00;;;16.90;;
7821;SDS011;3956;50.558;9.678;2023-02-21T06:09:11;33.90;;;17.60;;
7821;SDS011;3956;50.558;9.678;2023-02-21T06:12:24;28.90;;;17.57;;
7821;SDS011;3956;50.558;9.678;2023-02-21T06:15:44;32.53;;;16.63;;
7821;SDS011;3956;50.558;9.678;2023-02-21T06:18:13;26.77;;;15.97;;
7821;SDS011;3956;50.558;9.678;2023-02-21T06:20:48;30.47;;;17.13;;
7821;SDS011;3956;50.558;9.678;2023-02-21T06:23:43;28.67;;;15.93;;
7821;SDS011;3956;50.558;9.678;2023-02-21T06:26:16;30.07;;;16.13;;
7821;SDS011;3956;50.558;9.678;2023-02-21T06:29:05;32.80;;;16.43;;
7821;SDS011;3956;50.558;9.678;2023-02-21T06:31:34;32.90;;;16.13;;
7821;SDS011;3956;50.558;9.678;2023-02-21T06:34:04;33.70;;;16.00;;
7821;SDS011;3956;50.558;9.678;2023-02-21T06:36:32;32.93;;;19.27;;
7821;SDS011;3956;50.558;9.678;2023-02-21T06:39:02;33.23;;;17.73;;
7821;SDS011;3956;50.558;9.678;2023-02-21T06:41:32;30.33;;;17.40;;
7821;SDS011;3956;50.558;9.678;2023-02-21T06:44:01;33.30;;;17.23;;
7821;SDS011;3956;50.558;9.678;2023-02-21T06:46:33;29.70;;;15.50;;
7821;SDS011;3956;50.558;9.678;2023-02-21T06:49:07;29.63;;;15.90;;
7821;SDS011;3956;50.558;9.678;2023-02-21T06:52:15;31.13;;;16.07;;
7821;SDS011;3956;50.558;9.678;2023-02-21T06:55:09;30.37;;;15.03;;
7821;SDS011;3956;50.558;9.678;2023-02-21T06:57:41;29.53;;;13.93;;
7821;SDS011;3956;50.558;9.678;2023-02-21T07:00:11;30.40;;;14.30;;
7821;SDS011;3956;50.558;9.678;2023-02-21T07:02:42;27.17;;;14.50;;
7821;SDS011;3956;50.558;9.678;2023-02-21T07:05:12;34.70;;;14.00;;
7821;SDS011;3956;50.558;9.678;2023-02-21T07:07:42;26.30;;;13.80;;
7821;SDS011;3956;50.558;9.678;2023-02-21T07:10:34;29.00;;;14.57;;
7821;SDS011;3956;50.558;9.678;2023-02-21T07:13:06;27.70;;;13.33;;
7821;SDS011;3956;50.558;9.678;2023-02-21T07:15:34;27.00;;;13.17;;
7821;SDS011;3956;50.558;9.678;2023-02-21T07:18:03;26.00;;;13.73;;
7821;SDS011;3956;50.558;9.678;2023-02-21T07:20:33;22.37;;;12.47;;
7821;SDS011;3956;50.558;9.678;2023-02-21T07:23:03;25.27;;;12.63;;
7821;SDS011;3956;50.558;9.678;2023-02-21T07:25:35;19.37;;;11.57;;
7821;SDS011;3956;50.558;9.678;2023-02-21T07:28:11;20.47;;;11.83;;
7821;SDS011;3956;50.558;9.678;2023-02-21T07:30:45;20.93;;;11.07;;
7821;SDS011;3956;50.558;9.678;2023-02-21T07:33:14;21.47;;;12.80;;
7821;SDS011;3956;50.558;9.678;2023-02-21T07:35:46;23.93;;;12.00;;
7821;SDS011;3956;50.558;9.678;2023-02-21T07:38:21;27.33;;;12.97;;
7821;SDS011;3956;50.558;9.678;2023-02-21T07:41:29;24.20;;;13.37;;
7821;SDS011;3956;50.558;9.678;2023-02-21T07:44:35;25.27;;;13.23;;
7821;SDS011;3956;50.558;9.678;2023-02-21T07:47:13;20.67;;;11.80;;
7821;SDS011;3956;50.558;9.678;2023-02-21T07:50:06;23.60;;;12.63;;
7821;SDS011;3956;50.558;9.678;2023-02-21T07:52:36;24.60;;;13.27;;
7821;SDS011;3956;50.558;9.678;2023-02-21T07:55:06;23.93;;;13.23;;
7821;SDS011;3956;50.558;9.678;2023-02-21T07:57:52;28.73;;;15.87;;
7821;SDS011;3956;50.558;9.678;2023-02-21T08:00:25;25.93;;;14.10;;
7821;SDS011;3956;50.558;9.678;2023-02-21T08:03:05;27.07;;;12.87;;
7821;SDS011;3956;50.558;9.678;2023-02-21T08:05:35;23.07;;;11.93;;
7821;SDS011;3956;50.558;9.678;2023-02-21T08:08:06;24.37;;;12.70;;
7821;SDS011;3956;50.558;9.678;2023-02-21T08:10:41;23.00;;;11.60;;
7821;SDS011;3956;50.558;9.678;2023-02-21T08:13:21;23.27;;;12.17;;
7821;SDS011;3956;50.558;9.678;2023-02-21T08:20:10;22.77;;;12.23;;
7821;SDS011;3956;50.558;9.678;2023-02-21T08:22:39;21.27;;;12.73;;
7821;SDS011;3956;50.558;9.678;2023-02-21T08:25:08;24.13;;;12.57;;
7821;SDS011;3956;50.558;9.678;2023-02-21T08:27:38;21.60;;;11.23;;
7821;SDS011;3956;50.558;9.678;2023-02-21T08:30:10;18.73;;;11.70;;
7821;SDS011;3956;50.558;9.678;2023-02-21T08:32:40;19.70;;;12.00;;
7821;SDS011;3956;50.558;9.678;2023-02-21T08:35:21;20.57;;;11.70;;
7821;SDS011;3956;50.558;9.678;2023-02-21T08:37:50;20.20;;;11.80;;
7821;SDS011;3956;50.558;9.678;2023-02-21T08:40:23;22.40;;;12.37;;
7821;SDS011;3956;50.558;9.678;2023-02-21T08:42:59;24.23;;;12.03;;
7821;SDS011;3956;50.558;9.678;2023-02-21T08:45:54;21.03;;;12.10;;
7821;SDS011;3956;50.558;9.678;2023-02-21T08:48:22;21.13;;;12.27;;
7821;SDS011;3956;50.558;9.678;2023-02-21T08:57:19;18.10;;;11.93;;
7821;SDS011;3956;50.558;9.678;2023-02-21T08:59:55;19.00;;;11.40;;
7821;SDS011;3956;50.558;9.678;2023-02-21T09:02:32;18.60;;;10.93;;
7821;SDS011;3956;50.558;9.678;2023-02-21T09:05:06;19.07;;;11.23;;
7821;SDS011;3956;50.558;9.678;2023-02-21T09:07:39;21.73;;;11.80;;
7821;SDS011;3956;50.558;9.678;2023-02-21T09:10:07;21.83;;;13.20;;
7821;SDS011;3956;50.558;9.678;2023-02-21T09:12:42;21.90;;;11.67;;
7821;SDS011;3956;50.558;9.678;2023-02-21T09:15:13;24.97;;;12.83;;
7821;SDS011;3956;50.558;9.678;2023-02-21T09:17:54;19.83;;;11.57;;
7821;SDS011;3956;50.558;9.678;2023-02-21T09:20:24;20.90;;;11.60;;
7821;SDS011;3956;50.558;9.678;2023-02-21T09:22:54;20.63;;;10.97;;
7821;SDS011;3956;50.558;9.678;2023-02-21T09:25:23;18.03;;;10.73;;
7821;SDS011;3956;50.558;9.678;2023-02-21T09:28:02;21.97;;;11.10;;
7821;SDS011;3956;50.558;9.678;2023-02-21T09:30:41;18.07;;;10.20;;
7821;SDS011;3956;50.558;9.678;2023-02-21T09:33:12;15.70;;;9.47;;
7821;SDS011;3956;50.558;9.678;2023-02-21T09:35:43;18.50;;;10.30;;
7821;SDS011;3956;50.558;9.678;2023-02-21T09:38:21;16.57;;;9.53;;
7821;SDS011;3956;50.558;9.678;2023-02-21T09:40:57;19.03;;;10.47;;
7821;SDS011;3956;50.558;9.678;2023-02-21T09:43:32;17.13;;;10.13;;
7821;SDS011;3956;50.558;9.678;2023-02-21T09:46:06;16.23;;;9.10;;
7821;SDS011;3956;50.558;9.678;2023-02-21T09:48:40;17.73;;;10.17;;
7821;SDS011;3956;50.558;9.678;2023-02-21T09:51:10;20.17;;;9.90;;
7821;SDS011;3956;50.558;9.678;2023-02-21T09:53:46;18.17;;;10.10;;
7821;SDS011;3956;50.558;9.678;2023-02-21T09:56:25;16.73;;;9.77;;
7821;SDS011;3956;50.558;9.678;2023-02-21T09:59:07;16.80;;;9.60;;
7821;SDS011;3956;50.558;9.678;2023-02-21T10:01:53;17.83;;;9.73;;
7821;SDS011;3956;50.558;9.678;2023-02-21T10:04:49;16.30;;;9.80;;
7821;SDS011;3956;50.558;9.678;2023-02-21T10:07:27;16.73;;;9.93;;
7821;SDS011;3956;50.558;9.678;2023-02-21T10:10:05;21.00;;;10.50;;
7821;SDS011;3956;50.558;9.678;2023-02-21T10:12:43;17.17;;;9.13;;
7821;SDS011;3956;50.558;9.678;2023-02-21T10:15:22;18.53;;;10.30;;
7821;SDS011;3956;50.558;9.678;2023-02-21T10:18:03;15.53;;;10.50;;
7821;SDS011;3956;50.558;9.678;2023-02-21T10:20:37;19.10;;;9.00;;
7821;SDS011;3956;50.558;9.678;2023-02-21T10:23:13;16.37;;;10.00;;
7821;SDS011;3956;50.558;9.678;2023-02-21T10:26:22;16.13;;;9.40;;
7821;SDS011;3956;50.558;9.678;2023-02-21T10:28:57;14.13;;;8.93;;
7821;SDS011;3956;50.558;9.678;2023-02-21T10:31:29;16.47;;;9.30;;
7821;SDS011;3956;50.558;9.678;2023-02-21T10:34:15;16.97;;;9.33;;
7821;SDS011;3956;50.558;9.678;2023-02-21T10:36:56;17.63;;;9.83;;
7821;SDS011;3956;50.558;9.678;2023-02-21T10:39:57;19.20;;;9.77;;
7821;SDS011;3956;50.558;9.678;2023-02-21T10:42:59;20.27;;;9.60;;
7821;SDS011;3956;50.558;9.678;2023-02-21T10:45:35;16.83;;;9.97;;
7821;SDS011;3956;50.558;9.678;2023-02-21T10:52:15;17.80;;;9.53;;
7821;SDS011;3956;50.558;9.678;2023-02-21T10:54:58;16.23;;;8.97;;
7821;SDS011;3956;50.558;9.678;2023-02-21T10:57:29;14.17;;;9.13;;
7821;SDS011;3956;50.558;9.678;2023-02-21T11:00:07;17.70;;;9.50;;
7821;SDS011;3956;50.558;9.678;2023-02-21T11:03:19;19.33;;;9.07;;
7821;SDS011;3956;50.558;9.678;2023-02-21T11:18:59;16.00;;;10.17;;
7821;SDS011;3956;50.558;9.678;2023-02-21T11:21:40;16.30;;;8.90;;
7821;SDS011;3956;50.558;9.678;2023-02-21T11:24:28;15.70;;;9.03;;
7821;SDS011;3956;50.558;9.678;2023-02-21T11:27:14;16.80;;;9.90;;
7821;SDS011;3956;50.558;9.678;2023-02-21T11:29:53;13.97;;;9.23;;
7821;SDS011;3956;50.558;9.678;2023-02-21T11:32:32;15.57;;;9.27;;
7821;SDS011;3956;50.558;9.678;2023-02-21T11:35:06;15.43;;;8.80;;
7821;SDS011;3956;50.558;9.678;2023-02-21T11:37:51;16.60;;;9.53;;
7821;SDS011;3956;50.558;9.678;2023-02-21T11:40:46;16.50;;;9.50;;
7821;SDS011;3956;50.558;9.678;2023-02-21T11:44:24;14.60;;;9.53;;
7821;SDS011;3956;50.558;9.678;2023-02-21T11:47:01;17.97;;;9.57;;
7821;SDS011;3956;50.558;9.678;2023-02-21T11:49:46;17.80;;;10.10;;
7821;SDS011;3956;50.558;9.678;2023-02-21T11:52:59;17.00;;;10.47;;
7821;SDS011;3956;50.558;9.678;2023-02-21T11:55:32;15.33;;;9.77;;
7821;SDS011;3956;50.558;9.678;2023-02-21T11:58:13;19.03;;;10.37;;
7821;SDS011;3956;50.558;9.678;2023-02-21T12:00:54;14.87;;;9.77;;
7821;SDS011;3956;50.558;9.678;2023-02-21T12:03:36;14.60;;;9.00;;
7821;SDS011;3956;50.558;9.678;2023-02-21T12:06:50;16.43;;;9.03;;
7821;SDS011;3956;50.558;9.678;2023-02-21T12:09:51;21.77;;;10.93;;
7821;SDS011;3956;50.558;9.678;2023-02-21T12:12:57;21.50;;;9.77;;
7821;SDS011;3956;50.558;9.678;2023-02-21T12:15:39;13.97;;;8.63;;
7821;SDS011;3956;50.558;9.678;2023-02-21T12:18:57;16.43;;;9.63;;
7821;SDS011;3956;50.558;9.678;2023-02-21T12:21:57;17.47;;;10.13;;
7821;SDS011;3956;50.558;9.678;2023-02-21T12:24:34;16.17;;;9.13;;
7821;SDS011;3956;50.558;9.678;2023-02-21T12:27:20;15.27;;;9.50;;
7821;SDS011;3956;50.558;9.678;2023-02-21T12:33:12;18.57;;;10.33;;
7821;SDS011;3956;50.558;9.678;2023-02-21T12:39:05;16.33;;;9.83;;
7821;SDS011;3956;50.558;9.678;2023-02-21T12:42:15;20.50;;;9.73;;
7821;SDS011;3956;50.558;9.678;2023-02-21T12:45:00;14.20;;;9.00;;
7821;SDS011;3956;50.558;9.678;2023-02-21T12:48:16;15.90;;;9.27;;
7821;SDS011;3956;50.558;9.678;2023-02-21T12:51:34;18.53;;;9.93;;
7821;SDS011;3956;50.558;9.678;2023-02-21T12:54:18;15.63;;;9.10;;
7821;SDS011;3956;50.558;9.678;2023-02-21T12:56:51;14.60;;;9.30;;
7821;SDS011;3956;50.558;9.678;2023-02-21T12:59:23;15.80;;;9.47;;
7821;SDS011;3956;50.558;9.678;2023-02-21T13:01:58;17.93;;;9.03;;
7821;SDS011;3956;50.558;9.678;2023-02-21T13:04:46;16.87;;;8.50;;
7821;SDS011;3956;50.558;9.678;2023-02-21T13:07:26;13.43;;;9.45;;
7821;SDS011;3956;50.558;9.678;2023-02-21T13:10:12;12.47;;;7.60;;
7821;SDS011;3956;50.558;9.678;2023-02-21T13:12:53;14.43;;;9.50;;
7821;SDS011;3956;50.558;9.678;2023-02-21T13:15:29;11.17;;;8.10;;
7821;SDS011;3956;50.558;9.678;2023-02-21T13:17:59;15.00;;;8.83;;
7821;SDS011;3956;50.558;9.678;2023-02-21T13:20:32;12.90;;;7.67;;
7821;SDS011;3956;50.558;9.678;2023-02-21T13:26:41;11.97;;;7.13;;
7821;SDS011;3956;50.558;9.678;2023-02-21T13:29:23;10.07;;;7.10;;
7821;SDS011;3956;50.558;9.678;2023-02-21T13:31:57;13.27;;;7.47;;
7821;SDS011;3956;50.558;9.678;2023-02-21T13:34:36;14.33;;;8.20;;
7821;SDS011;3956;50.558;9.678;2023-02-21T13:37:17;10.87;;;7.37;;
7821;SDS011;3956;50.558;9.678;2023-02-21T13:39:49;11.83;;;7.67;;
7821;SDS011;3956;50.558;9.678;2023-02-21T13:42:27;10.37;;;7.03;;
7821;SDS011;3956;50.558;9.678;2023-02-21T13:45:12;11.87;;;8.30;;
7821;SDS011;3956;50.558;9.678;2023-02-21T13:58:37;13.27;;;6.87;;
7821;SDS011;3956;50.558;9.678;2023-02-21T14:01:48;13.60;;;7.00;;
7821;SDS011;3956;50.558;9.678;2023-02-21T14:04:57;11.93;;;8.07;;
7821;SDS011;3956;50.558;9.678;2023-02-21T14:07:48;11.87;;;7.97;;
7821;SDS011;3956;50.558;9.678;2023-02-21T14:11:15;12.27;;;7.07;;
7821;SDS011;3956;50.558;9.678;2023-02-21T14:14:31;18.20;;;7.93;;
7821;SDS011;3956;50.558;9.678;2023-02-21T14:17:05;15.00;;;7.50;;
7821;SDS011;3956;50.558;9.678;2023-02-21T14:19:40;12.57;;;7.93;;
7821;SDS011;3956;50.558;9.678;2023-02-21T14:22:11;16.77;;;7.87;;
7821;SDS011;3956;50.558;9.678;2023-02-21T14:24:42;12.80;;;7.57;;
7821;SDS011;3956;50.558;9.678;2023-02-21T14:27:33;13.33;;;8.00;;
7821;SDS011;3956;50.558;9.678;2023-02-21T14:30:26;12.00;;;7.40;;
7821;SDS011;3956;50.558;9.678;2023-02-21T14:33:07;12.23;;;7.97;;
7821;SDS011;3956;50.558;9.678;2023-02-21T14:35:55;12.97;;;7.33;;
7821;SDS011;3956;50.558;9.678;2023-02-21T14:38:29;11.30;;;6.87;;
7821;SDS011;3956;50.558;9.678;2023-02-21T14:41:15;12.70;;;6.73;;
7821;SDS011;3956;50.558;9.678;2023-02-21T14:44:04;9.23;;;5.97;;
7821;SDS011;3956;50.558;9.678;2023-02-21T14:50:07;10.13;;;6.53;;
7821;SDS011;3956;50.558;9.678;2023-02-21T14:55:54;8.80;;;5.67;;
7821;SDS011;3956;50.558;9.678;2023-02-21T15:01:39;8.70;;;5.50;;
7821;SDS011;3956;50.558;9.678;2023-02-21T15:04:20;11.73;;;5.10;;
7821;SDS011;3956;50.558;9.678;2023-02-21T15:07:09;10.63;;;6.97;;
7821;SDS011;3956;50.558;9.678;2023-02-21T15:09:45;7.33;;;5.27;;
7821;SDS011;3956;50.558;9.678;2023-02-21T15:13:03;9.77;;;5.20;;
7821;SDS011;3956;50.558;9.678;2023-02-21T15:16:12;7.23;;;5.00;;
7821;SDS011;3956;50.558;9.678;2023-02-21T15:18:57;11.90;;;7.20;;
7821;SDS011;3956;50.558;9.678;2023-02-21T15:22:10;7.83;;;5.03;;
7821;SDS011;3956;50.558;9.678;2023-02-21T15:24:57;7.03;;;4.77;;
7821;SDS011;3956;50.558;9.678;2023-02-21T15:27:59;47.93;;;34.27;;
7821;SDS011;3956;50.558;9.678;2023-02-21T15:30:35;25.77;;;16.23;;
7821;SDS011;3956;50.558;9.678;2023-02-21T15:33:13;8.60;;;5.67;;
7821;SDS011;3956;50.558;9.678;2023-02-21T15:35:49;10.00;;;5.67;;
7821;SDS011;3956;50.558;9.678;2023-02-21T15:41:36;8.30;;;5.30;;
7821;SDS011;3956;50.558;9.678;2023-02-21T15:44:07;10.13;;;4.67;;
7821;SDS011;3956;50.558;9.678;2023-02-21T15:47:03;8.00;;;4.60;;
7821;SDS011;3956;50.558;9.678;2023-02-21T15:49:46;14.67;;;5.47;;
7821;SDS011;3956;50.558;9.678;2023-02-21T15:52:36;7.77;;;4.40;;
7821;SDS011;3956;50.558;9.678;2023-02-21T15:59:09;11.70;;;5.70;;
7821;SDS011;3956;50.558;9.678;2023-02-21T16:01:40;16.50;;;8.60;;
7821;SDS011;3956;50.558;9.678;2023-02-21T16:04:17;5.77;;;4.30;;
7821;SDS011;3956;50.558;9.678;2023-02-21T16:06:58;7.57;;;4.20;;
7821;SDS011;3956;50.558;9.678;2023-02-21T16:09:34;8.87;;;4.40;;
7821;SDS011;3956;50.558;9.678;2023-02-21T16:12:55;5.50;;;3.50;;
7821;SDS011;3956;50.558;9.678;2023-02-21T16:16:04;6.63;;;3.90;;
7821;SDS011;3956;50.558;9.678;2023-02-21T16:18:33;5.87;;;3.40;;
7821;SDS011;3956;50.558;9.678;2023-02-21T16:21:03;5.80;;;3.60;;
7821;SDS011;3956;50.558;9.678;2023-02-21T16:23:34;6.30;;;3.70;;
7821;SDS011;3956;50.558;9.678;2023-02-21T16:26:24;6.10;;;3.47;;
7821;SDS011;3956;50.558;9.678;2023-02-21T16:29:17;6.83;;;2.83;;
7821;SDS011;3956;50.558;9.678;2023-02-21T16:31:47;5.67;;;3.30;;
7821;SDS011;3956;50.558;9.678;2023-02-21T16:34:19;4.67;;;3.13;;
7821;SDS011;3956;50.558;9.678;2023-02-21T16:36:47;3.30;;;2.63;;
7821;SDS011;3956;50.558;9.678;2023-02-21T16:39:31;6.50;;;3.50;;
7821;SDS011;3956;50.558;9.678;2023-02-21T16:42:09;5.10;;;3.60;;
7821;SDS011;3956;50.558;9.678;2023-02-21T16:45:07;5.63;;;3.70;;
7821;SDS011;3956;50.558;9.678;2023-02-21T16:47:40;5.87;;;3.93;;
7821;SDS011;3956;50.558;9.678;2023-02-21T16:50:19;6.03;;;3.30;;
7821;SDS011;3956;50.558;9.678;2023-02-21T16:53:23;7.03;;;3.20;;
7821;SDS011;3956;50.558;9.678;2023-02-21T16:56:04;6.07;;;3.50;;
7821;SDS011;3956;50.558;9.678;2023-02-21T16:58:36;3.97;;;2.90;;
7821;SDS011;3956;50.558;9.678;2023-02-21T17:01:07;6.67;;;3.77;;
7821;SDS011;3956;50.558;9.678;2023-02-21T17:03:41;6.57;;;4.63;;
7821;SDS011;3956;50.558;9.678;2023-02-21T17:06:14;11.57;;;5.60;;
7821;SDS011;3956;50.558;9.678;2023-02-21T17:09:31;9.70;;;5.30;;
7821;SDS011;3956;50.558;9.678;2023-02-21T17:12:40;6.53;;;4.03;;
7821;SDS011;3956;50.558;9.678;2023-02-21T17:15:59;5.90;;;3.30;;
7821;SDS011;3956;50.558;9.678;2023-02-21T17:18:39;5.33;;;3.63;;
7821;SDS011;3956;50.558;9.678;2023-02-21T17:21:09;6.07;;;3.73;;
7821;SDS011;3956;50.558;9.678;2023-02-21T17:23:40;7.27;;;4.40;;
7821;SDS011;3956;50.558;9.678;2023-02-21T17:26:28;9.80;;;4.80;;
7821;SDS011;3956;50.558;9.678;2023-02-21T17:29:45;7.30;;;4.93;;